Time;durP1;ratioP1;P1;durP2;ratioP2;P2;SDS_P1;SDS_P2;PMS_P1;PMS_P2;Temp;Humidity;BMP_temperature;BMP_pressure;BME280_temperature;BME280_humidity;BME280_pressure;Samples;Min_cycle;Max_cycle;Signal;HPM_P1;HPM_P2
2023/05/27 00:01:25;;;;;;;20.65;6.75;;;;;;;;;;5079733;28;20047;-72
2023/05/27 00:03:50;;;;;;;19.40;6.88;;;;;;;;;;5080861;28;20031;-74
2023/05/27 00:06:16;;;;;;;22.60;6.35;;;;;;;;;;5062131;28;20040;-73
2023/05/27 00:08:41;;;;;;;25.65;6.22;;;;;;;;;;5078448;28;20117;-72
2023/05/27 00:11:06;;;;;;;18.77;6.43;;;;;;;;;;5062686;28;20040;-73
2023/05/27 00:13:34;;;;;;;21.42;6.65;;;;;;;;;;5112751;28;20036;-72
2023/05/27 00:15:59;;;;;;;26.77;6.45;;;;;;;;;;5095583;28;20041;-73
2023/05/27 00:18:25;;;;;;;27.10;6.18;;;;;;;;;;5080910;28;20047;-72
2023/05/27 00:20:50;;;;;;;23.60;6.28;;;;;;;;;;5080525;28;20050;-72
2023/05/27 00:23:16;;;;;;;29.63;7.32;;;;;;;;;;5079000;28;20074;-72
2023/05/27 00:25:41;;;;;;;26.05;6.60;;;;;;;;;;5079654;28;20166;-72
2023/05/27 00:28:08;;;;;;;19.40;6.30;;;;;;;;;;5079821;28;20019;-74
2023/05/27 00:30:34;;;;;;;24.25;6.47;;;;;;;;;;5081600;28;20017;-72
2023/05/27 00:32:59;;;;;;;25.75;6.53;;;;;;;;;;5082016;28;20048;-73
2023/05/27 00:35:29;;;;;;;22.65;6.68;;;;;;;;;;5079269;28;20049;-73
2023/05/27 00:37:54;;;;;;;22.38;6.43;;;;;;;;;;5030187;28;20098;-73
2023/05/27 00:40:22;;;;;;;23.98;6.53;;;;;;;;;;4978194;28;20487;-72
2023/05/27 00:42:47;;;;;;;30.20;6.75;;;;;;;;;;4979859;28;20011;-73
2023/05/27 00:45:12;;;;;;;20.70;6.03;;;;;;;;;;4979420;28;20021;-73
2023/05/27 00:47:38;;;;;;;27.45;6.47;;;;;;;;;;4980006;28;20031;-73
2023/05/27 00:50:04;;;;;;;21.58;5.80;;;;;;;;;;4976849;28;20045;-72
2023/05/27 00:52:29;;;;;;;28.50;6.10;;;;;;;;;;4978520;28;20035;-73
2023/05/27 00:54:57;;;;;;;21.35;5.80;;;;;;;;;;4977766;28;20096;-73
2023/05/27 00:57:23;;;;;;;22.85;5.93;;;;;;;;;;4976302;28;20031;-73
2023/05/27 00:59:48;;;;;;;18.60;5.38;;;;;;;;;;4960167;28;20035;-74
2023/05/27 01:02:15;;;;;;;20.83;5.82;;;;;;;;;;4978016;28;20419;-73
2023/05/27 01:04:42;;;;;;;28.60;6.20;;;;;;;;;;4976514;28;20039;-73
2023/05/27 01:07:17;;;;;;;26.92;5.80;;;;;;;;;;4977519;28;20061;-74
2023/05/27 01:10:01;;;;;;;22.75;5.43;;;;;;;;;;4977161;28;20137;-73
2023/05/27 01:12:28;;;;;;;26.30;6.30;;;;;;;;;;4975019;28;20130;-73
2023/05/27 01:14:57;;;;;;;22.83;5.47;;;;;;;;;;4976614;28;20054;-73
2023/05/27 01:17:23;;;;;;;27.08;5.55;;;;;;;;;;4976151;28;20031;-73
2023/05/27 01:19:50;;;;;;;23.33;5.63;;;;;;;;;;4980711;28;20082;-73
2023/05/27 01:22:17;;;;;;;27.52;6.38;;;;;;;;;;4979785;28;20031;-73
2023/05/27 01:24:42;;;;;;;18.77;4.70;;;;;;;;;;4980073;28;20468;-74
2023/05/27 01:27:08;;;;;;;18.58;5.15;;;;;;;;;;4981191;28;20026;-73
2023/05/27 01:29:34;;;;;;;18.98;5.43;;;;;;;;;;4972095;28;20033;-73
2023/05/27 01:32:02;;;;;;;18.35;5.25;;;;;;;;;;4964128;28;20047;-73
2023/05/27 01:34:32;;;;;;;18.58;5.10;;;;;;;;;;4964916;28;20038;-73
2023/05/27 01:37:00;;;;;;;20.25;6.00;;;;;;;;;;4963159;28;20038;-73
2023/05/27 01:39:26;;;;;;;24.15;5.68;;;;;;;;;;4964270;28;20096;-72
2023/05/27 01:41:51;;;;;;;22.40;5.45;;;;;;;;;;4965384;28;20487;-72
2023/05/27 01:44:17;;;;;;;18.17;4.55;;;;;;;;;;4964596;28;20047;-72
2023/05/27 01:46:43;;;;;;;21.20;5.45;;;;;;;;;;4965160;28;20031;-74
2023/05/27 01:49:08;;;;;;;20.50;4.50;;;;;;;;;;4965248;28;20108;-73
2023/05/27 01:51:34;;;;;;;18.77;5.68;;;;;;;;;;4964278;28;20035;-73
2023/05/27 01:53:59;;;;;;;21.23;5.45;;;;;;;;;;4964791;28;20035;-73
2023/05/27 01:56:24;;;;;;;20.30;5.65;;;;;;;;;;4963311;28;20050;-73
2023/05/27 01:58:50;;;;;;;17.23;4.97;;;;;;;;;;4964740;28;20391;-74
2023/05/27 02:01:15;;;;;;;21.60;5.68;;;;;;;;;;4964354;28;20243;-73
2023/05/27 02:03:40;;;;;;;20.25;6.18;;;;;;;;;;4964120;28;20034;-73
2023/05/27 02:06:05;;;;;;;21.40;5.80;;;;;;;;;;4961583;28;20034;-73
2023/05/27 02:08:31;;;;;;;23.70;5.45;;;;;;;;;;4964392;28;20034;-73
2023/05/27 02:10:56;;;;;;;20.25;5.18;;;;;;;;;;4962557;28;20043;-73
2023/05/27 02:13:21;;;;;;;19.33;5.03;;;;;;;;;;4962276;28;20043;-73
2023/05/27 02:15:47;;;;;;;20.90;5.95;;;;;;;;;;4964055;28;20064;-73
2023/05/27 02:18:14;;;;;;;17.25;5.25;;;;;;;;;;4962090;28;20023;-73
2023/05/27 02:20:39;;;;;;;19.45;5.32;;;;;;;;;;4962690;28;20038;-73
2023/05/27 02:23:06;;;;;;;19.83;5.00;;;;;;;;;;4963569;28;20023;-73
2023/05/27 02:25:31;;;;;;;17.25;4.93;;;;;;;;;;4962779;28;20031;-74
2023/05/27 02:27:57;;;;;;;20.83;5.72;;;;;;;;;;4963941;28;20057;-74
2023/05/27 02:30:24;;;;;;;16.60;4.90;;;;;;;;;;4963785;28;20322;-74
2023/05/27 02:32:50;;;;;;;24.38;6.00;;;;;;;;;;4963589;28;20069;-73
2023/05/27 02:35:16;;;;;;;20.23;5.47;;;;;;;;;;4963516;28;20088;-73
2023/05/27 02:37:41;;;;;;;28.77;6.10;;;;;;;;;;5003884;28;20037;-72
2023/05/27 02:40:08;;;;;;;24.05;5.70;;;;;;;;;;5065350;28;20055;-73
2023/05/27 02:42:33;;;;;;;16.92;5.57;;;;;;;;;;5064720;28;20485;-73
2023/05/27 02:44:59;;;;;;;24.42;6.25;;;;;;;;;;5065459;28;20044;-73
2023/05/27 02:47:24;;;;;;;19.58;6.38;;;;;;;;;;5064983;28;20029;-74
2023/05/27 02:49:49;;;;;;;20.42;6.25;;;;;;;;;;5065621;28;20098;-73
2023/05/27 02:52:15;;;;;;;20.02;6.63;;;;;;;;;;5063602;28;20082;-72
2023/05/27 02:54:40;;;;;;;20.08;5.57;;;;;;;;;;5047573;28;20056;-74
2023/05/27 02:57:07;;;;;;;24.92;5.65;;;;;;;;;;5063757;28;20028;-72
2023/05/27 02:59:32;;;;;;;21.00;6.13;;;;;;;;;;5063915;28;20062;-74
2023/05/27 03:01:58;;;;;;;18.17;6.00;;;;;;;;;;5064980;28;20040;-73
2023/05/27 03:04:23;;;;;;;21.08;6.18;;;;;;;;;;5066027;28;20554;-74
2023/05/27 03:06:48;;;;;;;20.80;6.00;;;;;;;;;;5062840;28;20039;-72
2023/05/27 03:09:18;;;;;;;18.70;6.07;;;;;;;;;;5065086;28;20486;-73
2023/05/27 03:11:44;;;;;;;22.88;6.80;;;;;;;;;;5062625;28;20037;-73
2023/05/27 03:14:09;;;;;;;22.90;5.70;;;;;;;;;;5065156;28;20020;-73
2023/05/27 03:16:35;;;;;;;24.45;6.13;;;;;;;;;;5064812;28;20113;-73
2023/05/27 03:19:01;;;;;;;18.27;6.18;;;;;;;;;;5063040;28;20064;-74
2023/05/27 03:21:26;;;;;;;22.98;6.40;;;;;;;;;;5064375;28;20119;-73
2023/05/27 03:23:52;;;;;;;20.58;5.75;;;;;;;;;;5064745;28;20048;-74
2023/05/27 03:26:17;;;;;;;20.63;6.10;;;;;;;;;;5064648;28;20039;-73
2023/05/27 03:28:42;;;;;;;23.88;6.68;;;;;;;;;;5064937;28;20059;-73
2023/05/27 03:31:08;;;;;;;22.30;6.05;;;;;;;;;;5064027;28;20040;-72
2023/05/27 03:33:33;;;;;;;27.65;6.10;;;;;;;;;;5063309;28;20508;-74
2023/05/27 03:35:59;;;;;;;26.48;6.40;;;;;;;;;;5065091;28;20033;-74
2023/05/27 03:38:24;;;;;;;24.77;6.30;;;;;;;;;;5063208;28;20036;-73
2023/05/27 03:40:50;;;;;;;22.92;6.70;;;;;;;;;;5064434;28;20047;-74
2023/05/27 03:43:17;;;;;;;20.65;6.20;;;;;;;;;;5062828;28;20621;-73
2023/05/27 03:45:43;;;;;;;23.60;6.07;;;;;;;;;;5046127;28;20055;-73
2023/05/27 03:48:10;;;;;;;24.48;6.40;;;;;;;;;;5064996;28;20031;-73
2023/05/27 03:50:35;;;;;;;28.75;6.85;;;;;;;;;;5062545;28;20116;-73
2023/05/27 03:53:01;;;;;;;20.02;6.28;;;;;;;;;;5064575;28;20029;-73
2023/05/27 03:55:26;;;;;;;17.75;6.35;;;;;;;;;;5062124;28;20025;-72
2023/05/27 03:57:54;;;;;;;20.02;6.05;;;;;;;;;;5062714;28;20040;-73
2023/05/27 04:00:21;;;;;;;21.92;6.40;;;;;;;;;;5096418;28;20024;-73
2023/05/27 04:02:47;;;;;;;22.48;5.90;;;;;;;;;;5064435;28;20408;-73
2023/05/27 04:05:12;;;;;;;23.88;7.00;;;;;;;;;;5063501;28;20048;-73
2023/05/27 04:07:37;;;;;;;21.85;5.90;;;;;;;;;;5062287;28;20074;-73
2023/05/27 04:10:03;;;;;;;23.90;6.05;;;;;;;;;;5063919;28;20533;-73
2023/05/27 04:12:28;;;;;;;18.92;6.38;;;;;;;;;;5045776;28;20459;-74
2023/05/27 04:14:53;;;;;;;22.52;6.80;;;;;;;;;;5063254;28;20043;-73
2023/05/27 04:17:19;;;;;;;29.83;6.93;;;;;;;;;;5062344;28;20125;-73
2023/05/27 04:19:44;;;;;;;26.98;6.43;;;;;;;;;;5063883;28;20132;-74
2023/05/27 04:22:10;;;;;;;22.00;6.35;;;;;;;;;;5062543;28;20024;-73
2023/05/27 04:24:39;;;;;;;20.92;6.40;;;;;;;;;;5045152;28;20302;-73
2023/05/27 04:27:04;;;;;;;26.80;6.43;;;;;;;;;;5063192;28;20041;-73
2023/05/27 04:29:31;;;;;;;21.08;6.50;;;;;;;;;;5062749;28;20024;-72
2023/05/27 04:31:57;;;;;;;18.33;6.50;;;;;;;;;;5061918;28;20036;-73
2023/05/27 04:34:27;;;;;;;29.52;7.25;;;;;;;;;;5062636;28;20032;-74
2023/05/27 04:36:52;;;;;;;20.25;5.93;;;;;;;;;;5056764;28;20488;-73
2023/05/27 04:39:17;;;;;;;22.40;6.13;;;;;;;;;;4928711;28;20281;-73
2023/05/27 04:41:43;;;;;;;22.38;6.15;;;;;;;;;;4962137;28;20063;-74
2023/05/27 04:44:08;;;;;;;21.00;5.57;;;;;;;;;;4962039;28;20031;-74
2023/05/27 04:46:34;;;;;;;27.23;6.35;;;;;;;;;;4962647;28;20109;-73
2023/05/27 04:49:02;;;;;;;20.95;6.68;;;;;;;;;;4961910;28;20403;-73
2023/05/27 04:51:27;;;;;;;20.30;5.75;;;;;;;;;;4961424;28;20038;-73
2023/05/27 04:53:54;;;;;;;16.67;6.15;;;;;;;;;;4959072;28;20027;-72
2023/05/27 04:56:19;;;;;;;23.27;5.75;;;;;;;;;;4961869;28;20031;-73
2023/05/27 04:58:46;;;;;;;15.80;5.35;;;;;;;;;;4960969;28;20038;-73
2023/05/27 05:01:17;;;;;;;20.13;5.47;;;;;;;;;;4961456;28;20080;-73
2023/05/27 05:04:12;;;;;;;20.75;5.65;;;;;;;;;;4959111;28;20436;-73
2023/05/27 05:06:38;;;;;;;18.45;5.88;;;;;;;;;;4959742;28;20108;-74
2023/05/27 05:09:04;;;;;;;19.40;5.40;;;;;;;;;;4958764;28;20047;-73
2023/05/27 05:11:30;;;;;;;17.77;5.10;;;;;;;;;;4961083;28;20142;-73
2023/05/27 05:13:55;;;;;;;17.98;5.07;;;;;;;;;;4958531;28;20134;-73
2023/05/27 05:16:20;;;;;;;18.48;5.13;;;;;;;;;;4960847;28;20035;-74
2023/05/27 05:18:45;;;;;;;21.80;4.90;;;;;;;;;;4959992;28;20035;-74
2023/05/27 05:21:13;;;;;;;21.75;4.97;;;;;;;;;;4961302;28;20110;-74
2023/05/27 05:23:39;;;;;;;17.45;4.55;;;;;;;;;;4958652;28;20030;-74
2023/05/27 05:26:06;;;;;;;12.68;3.53;;;;;;;;;;4958728;28;20031;-74
2023/05/27 05:28:32;;;;;;;17.27;4.00;;;;;;;;;;4960267;28;20057;-74
2023/05/27 05:30:57;;;;;;;22.05;4.20;;;;;;;;;;4942112;28;20031;-73
2023/05/27 05:33:22;;;;;;;20.00;3.92;;;;;;;;;;4959528;28;20027;-74
2023/05/27 05:35:47;;;;;;;20.15;4.10;;;;;;;;;;4959807;28;20023;-73
2023/05/27 05:38:13;;;;;;;20.30;4.25;;;;;;;;;;5021659;28;20370;-74
2023/05/27 05:40:38;;;;;;;14.93;4.10;;;;;;;;;;5060814;28;20209;-72
2023/05/27 05:43:03;;;;;;;21.25;3.85;;;;;;;;;;5061055;28;20036;-72
2023/05/27 05:45:30;;;;;;;16.10;4.35;;;;;;;;;;5093504;28;20474;-72
2023/05/27 05:47:55;;;;;;;15.48;4.72;;;;;;;;;;5060357;28;20475;-71
2023/05/27 05:50:20;;;;;;;15.10;4.68;;;;;;;;;;5061216;28;20139;-73
2023/05/27 05:52:46;;;;;;;18.13;4.20;;;;;;;;;;5059395;28;20122;-73
2023/05/27 05:55:11;;;;;;;23.15;4.30;;;;;;;;;;5060804;28;20059;-72
2023/05/27 05:57:36;;;;;;;14.18;4.05;;;;;;;;;;5061848;28;20025;-72
2023/05/27 06:00:02;;;;;;;17.25;4.03;;;;;;;;;;5059257;28;20147;-73
2023/05/27 06:02:27;;;;;;;18.02;4.10;;;;;;;;;;5059641;28;20033;-73
2023/05/27 06:04:53;;;;;;;16.35;3.90;;;;;;;;;;5061067;28;20021;-72
2023/05/27 06:07:18;;;;;;;19.90;4.13;;;;;;;;;;5064636;28;20025;-73
2023/05/27 06:09:44;;;;;;;16.33;3.83;;;;;;;;;;5064179;28;20104;-71
2023/05/27 06:12:12;;;;;;;17.58;3.65;;;;;;;;;;5063065;28;20075;-73
2023/05/27 06:14:37;;;;;;;15.90;4.47;;;;;;;;;;5058232;28;20036;-71
2023/05/27 06:17:02;;;;;;;15.70;3.65;;;;;;;;;;5062762;28;20032;-75
2023/05/27 06:19:28;;;;;;;17.33;3.90;;;;;;;;;;5064119;28;20104;-72
2023/05/27 06:21:53;;;;;;;14.32;3.78;;;;;;;;;;5063049;28;20290;-73
2023/05/27 06:24:21;;;;;;;15.10;3.33;;;;;;;;;;5096501;28;20039;-72
2023/05/27 06:26:49;;;;;;;17.60;3.42;;;;;;;;;;5062296;28;20025;-75
2023/05/27 06:29:15;;;;;;;15.23;4.57;;;;;;;;;;5062559;28;20285;-72
2023/05/27 06:31:40;;;;;;;14.05;3.53;;;;;;;;;;5062984;28;20039;-73
2023/05/27 06:34:05;;;;;;;16.13;3.80;;;;;;;;;;5062833;28;20024;-72
2023/05/27 06:36:33;;;;;;;17.73;3.88;;;;;;;;;;5062921;28;20028;-72
2023/05/27 06:38:59;;;;;;;17.33;4.22;;;;;;;;;;4968379;28;20039;-72
2023/05/27 06:41:25;;;;;;;11.95;4.03;;;;;;;;;;4961974;28;20023;-73
2023/05/27 06:43:50;;;;;;;14.25;4.13;;;;;;;;;;4961754;28;20490;-73
2023/05/27 06:46:19;;;;;;;17.65;4.20;;;;;;;;;;4962182;28;20473;-72
2023/05/27 06:48:44;;;;;;;16.17;3.90;;;;;;;;;;4961586;28;20293;-72
2023/05/27 06:51:09;;;;;;;15.98;3.88;;;;;;;;;;4962256;28;20087;-73
2023/05/27 06:53:35;;;;;;;16.33;4.00;;;;;;;;;;4961881;28;20019;-72
2023/05/27 06:56:00;;;;;;;15.35;3.97;;;;;;;;;;4962287;28;20313;-72
2023/05/27 06:58:26;;;;;;;16.80;3.97;;;;;;;;;;4943646;28;20027;-72
2023/05/27 07:00:51;;;;;;;14.73;3.65;;;;;;;;;;4961937;28;20031;-72
2023/05/27 07:03:16;;;;;;;17.45;3.80;;;;;;;;;;4960292;28;20023;-73
2023/05/27 07:05:42;;;;;;;15.30;3.95;;;;;;;;;;4962321;28;20034;-73
2023/05/27 07:08:07;;;;;;;11.73;3.47;;;;;;;;;;4962437;28;20542;-74
2023/05/27 07:10:32;;;;;;;12.57;3.65;;;;;;;;;;4960330;28;20031;-74
2023/05/27 07:12:57;;;;;;;14.40;4.30;;;;;;;;;;4961669;28;20161;-74
2023/05/27 07:15:23;;;;;;;11.18;3.67;;;;;;;;;;4961500;28;20165;-74
2023/05/27 07:17:48;;;;;;;15.63;3.70;;;;;;;;;;4962797;28;20030;-75
2023/05/27 07:20:13;;;;;;;15.52;3.70;;;;;;;;;;4962252;28;20031;-74
2023/05/27 07:22:39;;;;;;;17.75;4.47;;;;;;;;;;4960665;28;20031;-74
2023/05/27 07:25:04;;;;;;;13.40;3.65;;;;;;;;;;4960574;28;20042;-73
2023/05/27 07:27:30;;;;;;;18.00;4.03;;;;;;;;;;4959864;28;20031;-72
2023/05/27 07:29:55;;;;;;;15.38;3.88;;;;;;;;;;4944793;28;20031;-73
2023/05/27 07:32:22;;;;;;;13.38;4.13;;;;;;;;;;4941598;28;20085;-73
2023/05/27 07:34:47;;;;;;;14.85;3.97;;;;;;;;;;4943054;28;20027;-73
2023/05/27 07:37:12;;;;;;;13.95;3.60;;;;;;;;;;4965961;28;20034;-73
2023/05/27 07:39:38;;;;;;;13.95;4.00;;;;;;;;;;5062073;28;20443;-73
2023/05/27 07:42:03;;;;;;;17.77;4.00;;;;;;;;;;5063680;28;20028;-73
2023/05/27 07:44:28;;;;;;;15.27;3.35;;;;;;;;;;5063060;28;20024;-74
2023/05/27 07:46:53;;;;;;;12.38;3.70;;;;;;;;;;5062510;28;20536;-73
2023/05/27 07:49:21;;;;;;;12.48;3.78;;;;;;;;;;5062013;28;20039;-73
2023/05/27 07:51:49;;;;;;;12.20;3.55;;;;;;;;;;5060541;28;20515;-73
2023/05/27 07:54:14;;;;;;;12.57;3.53;;;;;;;;;;5062790;28;20024;-74
2023/05/27 07:56:42;;;;;;;18.73;3.83;;;;;;;;;;5062545;28;20033;-75
2023/05/27 07:59:07;;;;;;;13.73;3.58;;;;;;;;;;5059964;28;20021;-75
2023/05/27 08:01:32;;;;;;;11.95;3.88;;;;;;;;;;5060091;28;20515;-75
2023/05/27 08:03:59;;;;;;;13.15;3.67;;;;;;;;;;5061917;28;20107;-74
2023/05/27 08:06:24;;;;;;;13.13;3.90;;;;;;;;;;5062279;28;20020;-73
2023/05/27 08:08:50;;;;;;;10.90;3.65;;;;;;;;;;5062276;28;20074;-76
2023/05/27 08:11:16;;;;;;;15.30;3.90;;;;;;;;;;5043634;28;20051;-72
2023/05/27 08:13:42;;;;;;;13.50;3.55;;;;;;;;;;5062224;28;20036;-73
2023/05/27 08:16:08;;;;;;;15.18;4.20;;;;;;;;;;5060634;28;20111;-74
2023/05/27 08:18:37;;;;;;;13.75;3.88;;;;;;;;;;5060544;28;20488;-73
2023/05/27 08:21:02;;;;;;;9.70;3.80;;;;;;;;;;5061774;28;20460;-73
2023/05/27 08:23:28;;;;;;;14.88;4.13;;;;;;;;;;5062439;28;20128;-74
2023/05/27 08:25:55;;;;;;;13.23;3.88;;;;;;;;;;5061732;28;20031;-73
2023/05/27 08:28:21;;;;;;;11.90;3.88;;;;;;;;;;5061475;28;20033;-74
2023/05/27 08:30:46;;;;;;;13.75;4.10;;;;;;;;;;5061041;28;20174;-74
2023/05/27 08:33:11;;;;;;;13.15;4.13;;;;;;;;;;5094056;28;20124;-76
2023/05/27 08:35:37;;;;;;;14.52;4.22;;;;;;;;;;5061645;28;20020;-74
2023/05/27 08:38:02;;;;;;;14.90;4.38;;;;;;;;;;5005520;28;20034;-75
2023/05/27 08:40:27;;;;;;;16.52;4.68;;;;;;;;;;4954624;28;20022;-72
2023/05/27 08:42:53;;;;;;;13.43;3.72;;;;;;;;;;4960871;28;20015;-75
2023/05/27 08:45:18;;;;;;;13.65;4.13;;;;;;;;;;4960514;28;20031;-74
2023/05/27 08:47:44;;;;;;;19.33;4.75;;;;;;;;;;4958433;28;20045;-73
2023/05/27 08:50:09;;;;;;;16.52;4.20;;;;;;;;;;4961626;28;20019;-74
2023/05/27 08:52:38;;;;;;;12.55;4.07;;;;;;;;;;4960977;28;20525;-74
2023/05/27 08:55:05;;;;;;;13.55;4.22;;;;;;;;;;4960624;28;20039;-73
2023/05/27 08:57:32;;;;;;;15.75;4.25;;;;;;;;;;4961012;28;20038;-74
2023/05/27 08:59:57;;;;;;;13.68;4.30;;;;;;;;;;4960101;28;20031;-73
2023/05/27 09:02:23;;;;;;;13.63;4.07;;;;;;;;;;4959156;28;20031;-74
2023/05/27 09:04:48;;;;;;;13.77;4.40;;;;;;;;;;4959062;28;20619;-74
2023/05/27 09:07:14;;;;;;;18.80;4.97;;;;;;;;;;4959022;28;20054;-73
2023/05/27 09:09:39;;;;;;;16.33;4.30;;;;;;;;;;4957785;28;20031;-76
2023/05/27 09:12:05;;;;;;;17.73;4.50;;;;;;;;;;4958214;28;20443;-74
2023/05/27 09:14:34;;;;;;;13.82;4.70;;;;;;;;;;4959526;28;20031;-74
2023/05/27 09:17:09;;;;;;;14.10;4.47;;;;;;;;;;4959083;28;20070;-74
2023/05/27 09:19:34;;;;;;;13.05;4.00;;;;;;;;;;4959721;28;20027;-75
2023/05/27 09:22:00;;;;;;;15.90;4.57;;;;;;;;;;4958243;28;20035;-76
2023/05/27 09:24:26;;;;;;;14.23;4.63;;;;;;;;;;4959908;28;20375;-75
2023/05/27 09:26:52;;;;;;;12.65;4.18;;;;;;;;;;4960195;28;20101;-75
2023/05/27 09:29:20;;;;;;;16.08;4.90;;;;;;;;;;4959333;28;20038;-78
2023/05/27 09:31:45;;;;;;;14.45;4.85;;;;;;;;;;4958114;28;20054;-75
2023/05/27 09:34:15;;;;;;;12.63;4.40;;;;;;;;;;4958670;28;20088;-75
2023/05/27 09:36:43;;;;;;;15.57;4.50;;;;;;;;;;4959453;28;20027;-74
2023/05/27 09:39:11;;;;;;;15.55;4.55;;;;;;;;;;4941270;28;20061;-77
2023/05/27 09:41:37;;;;;;;18.15;5.13;;;;;;;;;;4942450;28;20201;-76
2023/05/27 09:44:07;;;;;;;16.80;4.95;;;;;;;;;;4943482;28;20106;-77
2023/05/27 09:46:33;;;;;;;16.85;4.80;;;;;;;;;;4950182;28;20506;-76
2023/05/27 09:49:03;;;;;;;13.45;4.80;;;;;;;;;;4948031;28;20062;-76
2023/05/27 09:51:32;;;;;;;16.48;5.00;;;;;;;;;;4959795;28;20055;-76
2023/05/27 09:53:58;;;;;;;15.48;4.75;;;;;;;;;;4957104;28;20375;-76
2023/05/27 09:56:23;;;;;;;14.18;4.72;;;;;;;;;;4942774;28;20024;-76
2023/05/27 09:58:49;;;;;;;15.18;4.80;;;;;;;;;;4942676;28;20464;-75
2023/05/27 10:01:14;;;;;;;14.45;4.80;;;;;;;;;;4944660;28;20024;-76
2023/05/27 10:03:42;;;;;;;17.83;5.35;;;;;;;;;;4943662;28;20170;-73
2023/05/27 10:06:08;;;;;;;18.23;5.00;;;;;;;;;;4944260;28;20027;-76
2023/05/27 10:08:33;;;;;;;12.98;4.22;;;;;;;;;;4974549;28;20032;-75
2023/05/27 10:10:58;;;;;;;16.95;5.15;;;;;;;;;;4958911;28;20518;-76
2023/05/27 10:13:25;;;;;;;16.50;5.10;;;;;;;;;;4944370;28;20032;-74
2023/05/27 10:15:53;;;;;;;14.10;4.82;;;;;;;;;;4945101;28;20057;-77
2023/05/27 10:18:22;;;;;;;16.52;4.90;;;;;;;;;;4943743;28;20023;-76
2023/05/27 10:20:48;;;;;;;17.42;4.95;;;;;;;;;;4943694;28;20170;-75
2023/05/27 10:23:25;;;;;;;13.48;4.40;;;;;;;;;;4974295;28;20027;-75
2023/05/27 10:25:55;;;;;;;12.60;4.68;;;;;;;;;;4943534;28;20027;-78
2023/05/27 10:28:35;;;;;;;12.80;4.63;;;;;;;;;;4942506;28;20523;-77
2023/05/27 10:31:11;;;;;;;16.40;5.18;;;;;;;;;;4957371;28;20046;-76
2023/05/27 10:33:37;;;;;;;21.30;5.63;;;;;;;;;;4941665;28;20074;-77
2023/05/27 10:36:04;;;;;;;17.92;5.20;;;;;;;;;;4942421;28;20031;-78
2023/05/27 10:38:31;;;;;;;14.75;5.00;;;;;;;;;;5030361;28;20025;-78
2023/05/27 10:41:03;;;;;;;16.38;5.20;;;;;;;;;;5061924;28;20051;-75
2023/05/27 10:43:29;;;;;;;13.00;4.50;;;;;;;;;;5063348;28;20078;-75
2023/05/27 10:46:02;;;;;;;16.08;4.88;;;;;;;;;;5064742;28;20158;-77
2023/05/27 10:48:33;;;;;;;14.93;5.10;;;;;;;;;;5064168;28;20052;-76
2023/05/27 10:50:59;;;;;;;14.73;5.22;;;;;;;;;;5062872;28;20021;-77
2023/05/27 10:53:28;;;;;;;17.65;5.05;;;;;;;;;;5064512;28;20032;-77
2023/05/27 10:55:53;;;;;;;13.60;4.63;;;;;;;;;;5063625;28;20043;-76
2023/05/27 10:58:19;;;;;;;15.75;4.97;;;;;;;;;;5036836;28;20092;-76
2023/05/27 11:00:47;;;;;;;17.15;4.85;;;;;;;;;;4944444;28;20019;-75
2023/05/27 11:03:21;;;;;;;13.50;4.97;;;;;;;;;;4943079;28;20126;-76
2023/05/27 11:05:47;;;;;;;14.00;4.75;;;;;;;;;;4942155;28;20035;-78
2023/05/27 11:08:13;;;;;;;12.38;4.47;;;;;;;;;;4942758;28;20246;-77
2023/05/27 11:10:42;;;;;;;18.58;5.47;;;;;;;;;;4942946;28;20107;-76
2023/05/27 11:13:08;;;;;;;16.55;4.88;;;;;;;;;;4940391;28;20116;-76
2023/05/27 11:15:33;;;;;;;13.48;4.55;;;;;;;;;;4942833;28;20315;-77
2023/05/27 11:18:08;;;;;;;15.10;4.53;;;;;;;;;;4940202;28;20110;-77
2023/05/27 11:20:36;;;;;;;13.50;4.38;;;;;;;;;;4942547;28;20054;-77
2023/05/27 11:23:02;;;;;;;14.15;4.55;;;;;;;;;;4942197;28;20214;-73
2023/05/27 11:25:27;;;;;;;13.55;4.53;;;;;;;;;;4941435;28;20432;-73
2023/05/27 11:27:53;;;;;;;14.73;4.47;;;;;;;;;;4949358;28;20031;-74
2023/05/27 11:30:23;;;;;;;16.23;5.00;;;;;;;;;;4959581;28;20527;-74
2023/05/27 11:32:48;;;;;;;14.98;4.75;;;;;;;;;;4960004;28;20569;-75
2023/05/27 11:35:17;;;;;;;15.70;4.85;;;;;;;;;;4960616;28;20046;-73
2023/05/27 11:37:46;;;;;;;13.93;4.57;;;;;;;;;;5001634;28;20120;-72
2023/05/27 11:40:15;;;;;;;12.00;4.75;;;;;;;;;;5017529;28;20110;-72
2023/05/27 11:42:49;;;;;;;14.90;4.50;;;;;;;;;;4943155;28;20040;-71
2023/05/27 11:45:18;;;;;;;15.43;4.63;;;;;;;;;;4941296;28;20032;-73
2023/05/27 11:47:43;;;;;;;17.85;5.07;;;;;;;;;;4940027;28;20569;-72
2023/05/27 11:50:09;;;;;;;12.90;4.20;;;;;;;;;;4941083;28;20039;-73
2023/05/27 11:52:35;;;;;;;16.45;4.45;;;;;;;;;;4945286;28;20130;-73
2023/05/27 11:55:02;;;;;;;14.23;4.30;;;;;;;;;;4952463;28;20092;-73
2023/05/27 11:57:30;;;;;;;15.95;4.55;;;;;;;;;;4984470;28;20039;-72
2023/05/27 11:59:56;;;;;;;17.52;5.13;;;;;;;;;;4941554;28;20067;-73
2023/05/27 12:02:21;;;;;;;15.15;4.93;;;;;;;;;;4945939;28;20081;-73
2023/05/27 12:04:49;;;;;;;13.30;4.60;;;;;;;;;;4951267;28;20023;-73
2023/05/27 12:07:14;;;;;;;12.82;3.70;;;;;;;;;;4959691;28;20454;-72
2023/05/27 12:09:39;;;;;;;11.07;4.05;;;;;;;;;;4938920;28;20032;-73
2023/05/27 12:12:05;;;;;;;14.88;4.80;;;;;;;;;;4956448;28;20042;-72
2023/05/27 12:14:32;;;;;;;14.38;4.82;;;;;;;;;;4950992;28;20531;-72
2023/05/27 12:16:58;;;;;;;13.45;4.40;;;;;;;;;;4937983;28;20031;-73
2023/05/27 12:19:23;;;;;;;14.80;5.00;;;;;;;;;;4958386;28;20041;-72
2023/05/27 12:21:49;;;;;;;14.10;4.72;;;;;;;;;;4955040;28;20468;-71
2023/05/27 12:24:16;;;;;;;12.63;4.47;;;;;;;;;;4940325;28;20494;-72
2023/05/27 12:26:42;;;;;;;15.73;4.57;;;;;;;;;;4958547;28;20046;-72
2023/05/27 12:29:10;;;;;;;13.35;4.65;;;;;;;;;;4955059;28;20567;-73
2023/05/27 12:31:35;;;;;;;13.68;4.70;;;;;;;;;;4952027;28;20070;-73
2023/05/27 12:34:00;;;;;;;13.68;5.20;;;;;;;;;;4954538;28;20054;-73
2023/05/27 12:36:26;;;;;;;14.30;4.60;;;;;;;;;;4957477;28;20027;-74
2023/05/27 12:38:53;;;;;;;14.68;4.55;;;;;;;;;;4945225;28;20104;-73
2023/05/27 12:41:19;;;;;;;13.35;4.85;;;;;;;;;;4958942;28;20036;-74
2023/05/27 12:43:44;;;;;;;20.73;7.03;;;;;;;;;;4958162;28;20110;-73
2023/05/27 12:46:10;;;;;;;17.52;5.47;;;;;;;;;;4958635;28;20196;-73
2023/05/27 12:48:35;;;;;;;12.52;4.57;;;;;;;;;;4951241;28;20039;-73
2023/05/27 12:51:01;;;;;;;15.30;4.53;;;;;;;;;;4947404;28;20042;-73
2023/05/27 12:53:26;;;;;;;14.20;5.13;;;;;;;;;;4959512;28;20110;-73
2023/05/27 12:55:51;;;;;;;13.98;4.35;;;;;;;;;;4951013;28;20035;-72
2023/05/27 12:58:17;;;;;;;14.07;4.25;;;;;;;;;;4954282;28;20034;-72
2023/05/27 13:00:44;;;;;;;16.63;4.50;;;;;;;;;;4948265;28;21739;-74
2023/05/27 13:03:09;;;;;;;16.83;4.70;;;;;;;;;;4948681;28;20111;-73
2023/05/27 13:05:34;;;;;;;13.27;4.20;;;;;;;;;;4959781;28;20122;-73
2023/05/27 13:08:01;;;;;;;15.27;4.65;;;;;;;;;;4951198;28;20519;-74
2023/05/27 13:10:27;;;;;;;12.38;4.43;;;;;;;;;;4957101;28;20030;-74
2023/05/27 13:12:53;;;;;;;16.60;4.75;;;;;;;;;;4956578;28;20074;-73
2023/05/27 13:15:23;;;;;;;11.45;3.83;;;;;;;;;;4960946;28;20061;-73
2023/05/27 13:17:49;;;;;;;10.85;4.10;;;;;;;;;;4962448;28;20042;-73
2023/05/27 13:20:15;;;;;;;11.80;4.22;;;;;;;;;;4965524;28;20031;-73
2023/05/27 13:22:41;;;;;;;13.00;4.38;;;;;;;;;;4965190;28;20453;-72
2023/05/27 13:25:07;;;;;;;12.10;4.65;;;;;;;;;;4991872;28;20511;-73
2023/05/27 13:27:35;;;;;;;13.32;4.40;;;;;;;;;;4994949;28;20057;-72
2023/05/27 13:30:00;;;;;;;14.73;4.88;;;;;;;;;;4996069;28;20209;-73
2023/05/27 13:32:26;;;;;;;13.57;4.35;;;;;;;;;;4948998;28;20353;-74
2023/05/27 13:34:51;;;;;;;13.70;4.78;;;;;;;;;;4955075;28;20113;-72
2023/05/27 13:37:17;;;;;;;12.02;5.25;;;;;;;;;;4980113;28;20032;-73
2023/05/27 13:39:43;;;;;;;12.85;4.63;;;;;;;;;;4989621;28;20034;-73
2023/05/27 13:42:12;;;;;;;12.20;4.43;;;;;;;;;;4962887;28;20127;-74
2023/05/27 13:44:37;;;;;;;14.80;5.00;;;;;;;;;;4987620;28;20499;-73
2023/05/27 13:47:02;;;;;;;13.73;4.75;;;;;;;;;;4953763;28;20134;-73
2023/05/27 13:49:28;;;;;;;16.40;5.38;;;;;;;;;;4962423;28;20031;-72
2023/05/27 13:51:53;;;;;;;13.95;4.95;;;;;;;;;;4962248;28;20042;-73
2023/05/27 13:54:19;;;;;;;18.02;5.13;;;;;;;;;;4966329;28;20054;-74
2023/05/27 13:56:46;;;;;;;13.02;5.03;;;;;;;;;;4965567;28;20047;-73
2023/05/27 13:59:12;;;;;;;13.68;5.18;;;;;;;;;;4963605;28;20557;-74
2023/05/27 14:01:38;;;;;;;13.90;4.80;;;;;;;;;;4964274;28;20155;-74
2023/05/27 14:04:03;;;;;;;12.23;4.60;;;;;;;;;;4963396;28;20092;-72
2023/05/27 14:06:29;;;;;;;13.98;4.53;;;;;;;;;;4965240;28;20054;-73
2023/05/27 14:08:57;;;;;;;20.67;5.25;;;;;;;;;;4965317;28;20019;-74
2023/05/27 14:11:22;;;;;;;16.02;4.57;;;;;;;;;;4964773;28;20031;-74
2023/05/27 14:13:48;;;;;;;14.40;5.15;;;;;;;;;;4965055;28;20039;-74
2023/05/27 14:16:14;;;;;;;14.55;5.25;;;;;;;;;;4964300;28;20054;-74
2023/05/27 14:18:39;;;;;;;14.57;4.50;;;;;;;;;;4965174;28;20110;-73
2023/05/27 14:21:04;;;;;;;13.80;4.85;;;;;;;;;;4964110;28;20114;-74
2023/05/27 14:23:30;;;;;;;13.80;4.68;;;;;;;;;;4962581;28;20031;-73
2023/05/27 14:25:55;;;;;;;15.68;5.28;;;;;;;;;;4959207;28;20043;-73